Latest Weather Observations for Ulladulla

IDN60901

Issued at 5:21 pm EDT Tuesday 6 December 2022 (issued every 10 minutes, with the page automatically refreshed every 10 minutes)

About weather observations | Map of Canberra area stations | Latest observations for Canberra area | Other Formats
Station Details ID: 069138 Name: ULLADULLA AWS Lat: -35.36 Lon: 150.48 Height: 35.7 m
Data from the previous 72 hours. | See also: Recent months at Ulladulla
Date/Time
EDT
Temp
°C
App
Temp
°C
Dew
Point
°C
Rel
Hum
%
Delta-T
°C
Wind Press
QNH
hPa
Press
MSL
hPa
Rain since
9am
mm
Dir  Spd
km/h
Gust
km/h
Spd
kts
Gust
kts
06/05:00pm 17.7 15.3 12.8 73 2.7 S 17 24 9 13 1006.7 1006.6 0.0
06/04:30pm 18.1 15.3 12.5 70 3.1 S 19 26 10 14 1006.7 1006.6 0.0
06/04:00pm 18.6 15.8 12.6 68 3.4 S 19 28 10 15 1006.6 1006.5 0.0
06/03:30pm 18.9 16.6 13.1 69 3.3 S 17 22 9 12 1006.9 1006.8 0.0
06/03:00pm 19.0 16.8 13.4 70 3.2 S 17 26 9 14 1007.1 1007.0 0.0
06/02:30pm 19.2 16.8 13.8 71 3.1 S 19 24 10 13 1007.2 1007.1 0.0
06/02:00pm 20.2 18.2 13.9 67 3.6 S 17 24 9 13 1007.3 1007.2 0.0
06/01:30pm 19.9 17.4 13.4 66 3.7 S 19 26 10 14 1007.3 1007.2 0.0
06/01:00pm 19.0 17.0 12.7 67 3.5 SSE 15 24 8 13 1007.3 1007.2 0.0
06/12:30pm 19.5 17.9 12.8 65 3.8 SSE 13 20 7 11 1007.6 1007.5 0.0
06/12:00pm 19.2 17.3 12.9 67 3.6 SSE 15 22 8 12 1007.7 1007.6 0.0
06/11:30am 20.2 18.9 13.6 66 3.8 SSE 13 20 7 11 1007.8 1007.7 0.0
06/11:00am 19.8 17.5 13.0 65 3.9 S 17 20 9 11 1007.8 1007.7 0.0
06/10:30am 19.8 18.5 13.7 68 3.5 S 13 19 7 10 1008.0 1007.9 0.0
06/10:00am 19.7 18.6 14.3 71 3.1 S 13 19 7 10 1008.0 1007.9 0.0
06/09:30am 18.9 17.0 13.1 69 3.3 SSW 15 19 8 10 1007.8 1007.7 0.0
06/09:00am 19.4 18.0 13.3 68 3.5 SSW 13 20 7 11 1007.9 1007.8 2.0
06/08:30am 19.0 18.0 13.4 70 3.2 SSW 11 19 6 10 1007.8 1007.7 2.0
06/08:00am 18.5 17.6 13.6 73 2.8 SSW 11 17 6 9 1007.5 1007.4 2.0
06/07:30am 17.8 17.2 13.5 76 2.4 SW 9 17 5 9 1007.2 1007.1 2.0
06/07:00am 17.2 17.6 14.7 85 1.4 W 6 9 3 5 1007.1 1007.0 2.0
06/06:30am 16.1 16.7 14.3 89 1.0 WNW 4 9 2 5 1006.8 1006.7 2.0
06/06:00am 15.2 15.5 13.4 89 1.0 WNW 4 7 2 4 1006.4 1006.3 2.0
06/05:30am 14.9 14.7 12.9 88 1.1 WNW 6 7 3 4 1006.1 1006.0 2.0
06/05:00am 15.2 15.4 13.1 87 1.2 WNW 4 4 2 2 1006.0 1005.9 2.0
06/04:30am 15.7 16.1 13.7 88 1.1 WNW 4 6 2 3 1006.0 1005.9 2.0
06/04:00am 16.1 17.3 13.9 87 1.2 CALM 0 2 0 1 1006.0 1005.9 2.0
06/03:30am 16.4 17.0 14.2 87 1.3 W 4 6 2 3 1006.3 1006.2 2.0
06/03:00am 16.6 17.1 14.1 85 1.4 WSW 4 6 2 3 1006.4 1006.3 2.0
06/02:30am 16.9 15.8 14.2 84 1.5 SSW 13 20 7 11 1006.6 1006.5 2.0
06/02:00am 17.3 15.3 14.9 86 1.4 SSW 19 24 10 13 1006.9 1006.8 2.0
06/01:30am 17.4 16.7 15.4 88 1.2 SSW 13 19 7 10 1007.1 1007.0 2.0
06/01:00am 17.3 16.9 15.3 88 1.2 S 11 17 6 9 1007.3 1007.2 2.0
06/12:30am 17.3 17.3 15.3 88 1.2 SSW 9 13 5 7 1007.5 1007.4 1.8
06/12:00am 17.3 16.6 15.3 88 1.2 S 13 20 7 11 1007.5 1007.4 1.8
 
Date/Time
EDT
Temp
°C
App
Temp
°C
Dew
Point
°C
Rel
Hum
%
Delta-T
°C
Wind Press
QNH
hPa
Press
MSL
hPa
Rain since
9am
mm
Dir  Spd
km/h
Gust
km/h
Spd
kts
Gust
kts
05/11:30pm 17.1 15.5 15.1 88 1.2 S 17 24 9 13 1007.7 1007.6 1.8
05/11:00pm 17.0 14.9 15.3 90 1.0 S 20 28 11 15 1007.5 1007.4 1.8
05/10:30pm 17.5 17.0 15.8 90 1.0 SSW 13 19 7 10 1007.5 1007.4 1.6
05/10:00pm 17.5 16.5 15.5 88 1.2 S 15 19 8 10 1007.4 1007.3 1.2
05/09:30pm 17.7 16.1 15.9 89 1.1 SSW 19 26 10 14 1007.5 1007.4 1.2
05/09:00pm 17.8 17.3 16.0 89 1.1 SSW 13 17 7 9 1007.4 1007.3 1.0
05/08:30pm 17.6 16.5 15.4 87 1.3 SSW 15 22 8 12 1007.1 1007.0 0.8
05/08:00pm 18.0 16.0 15.4 85 1.5 SSW 20 30 11 16 1006.5 1006.4 0.4
05/07:30pm 18.1 14.9 15.4 84 1.6 SSW 26 41 14 22 1005.9 1005.8 0.4
05/07:00pm 18.4 14.7 16.0 86 1.4 SW 30 43 16 23 1005.4 1005.3 0.4
05/06:30pm 18.8 15.2 16.2 85 1.6 SW 30 41 16 22 1005.0 1004.9 0.4
05/06:00pm 19.4 15.6 16.6 84 1.7 SW 32 50 17 27 1004.2 1004.1 0.4
05/05:39pm 20.7 18.1 17.9 84 1.7 SW 28 48 15 26 1003.3 1003.2 0.4
05/05:30pm 20.8 18.8 18.2 85 1.6 SSW 26 37 14 20 1003.1 1003.0 0.4
05/05:17pm 20.3 18.6 17.1 82 2.0 SSW 22 43 12 23 1002.3 1002.2 0.4
05/05:00pm 21.4 22.2 17.2 77 2.6 NNE 9 13 5 7 1002.3 1002.2 0.4
05/04:30pm 20.8 21.6 17.4 81 2.1 NNE 9 13 5 7 1002.1 1002.0 0.0
05/04:00pm 21.1 20.8 17.3 79 2.3 NNE 15 19 8 10 1002.1 1002.0 0.0
05/03:30pm 21.7 22.7 17.7 78 2.5 N 9 19 5 10 1001.8 1001.7 0.0
05/03:00pm 21.5 21.1 17.1 76 2.7 NE 15 22 8 12 1002.1 1002.0 0.0
05/02:30pm 22.6 22.5 16.9 70 3.5 NE 13 20 7 11 1002.3 1002.2 0.0
05/02:00pm 23.6 23.6 17.1 67 4.0 ENE 13 20 7 11 1002.5 1002.4 0.0
05/01:30pm 24.5 23.8 16.5 61 4.9 NE 15 22 8 12 1002.7 1002.6 0.0
05/01:00pm 24.8 24.6 16.8 61 5.0 NE 13 26 7 14 1003.1 1003.0 0.0
05/12:30pm 23.9 23.1 17.2 66 4.1 NE 17 28 9 15 1003.4 1003.3 0.0
05/12:00pm 22.3 21.8 17.0 72 3.3 NE 15 28 8 15 1004.2 1004.1 0.0
05/11:30am 22.5 22.0 17.0 71 3.4 NE 15 24 8 13 1004.4 1004.3 0.0
05/11:00am 22.3 21.8 16.8 71 3.4 NE 15 24 8 13 1004.8 1004.7 0.0
05/10:30am 21.6 20.7 15.9 70 3.4 NE 15 22 8 12 1005.2 1005.1 0.0
05/10:00am 21.6 20.3 15.7 69 3.5 NE 17 28 9 15 1005.3 1005.2 0.0
05/09:30am 21.8 22.4 15.9 69 3.5 NE 7 13 4 7 1005.7 1005.6 0.0
05/09:00am 20.9 20.9 15.2 70 3.4 NE 9 19 5 10 1006.1 1006.0 1.2
05/08:30am 20.5 20.3 14.6 69 3.5 NNE 9 13 5 7 1006.5 1006.4 1.2
05/08:00am 19.6 19.4 14.6 73 2.9 N 9 13 5 7 1006.6 1006.5 1.2
05/07:30am 18.5 17.9 14.6 78 2.3 N 11 13 6 7 1006.7 1006.6 1.2
05/07:00am 17.4 17.1 14.3 82 1.8 NNE 9 11 5 6 1006.9 1006.8 1.2
05/06:30am 16.9 16.4 13.8 82 1.8 N 9 11 5 6 1007.2 1007.1 1.2
05/06:00am 16.0 15.8 13.5 85 1.4 N 7 9 4 5 1007.6 1007.5 1.2
05/05:30am 16.4 16.3 13.9 85 1.4 N 7 11 4 6 1007.2 1007.1 1.2
05/05:00am 16.7 16.2 13.8 83 1.6 N 9 13 5 7 1007.3 1007.2 1.2
05/04:30am 17.4 15.9 14.1 81 1.9 N 15 20 8 11 1007.3 1007.2 1.2
05/04:00am 17.5 15.7 14.4 82 1.8 N 17 20 9 11 1007.5 1007.4 1.2
05/03:30am 17.8 16.6 15.1 84 1.6 N 15 24 8 13 1007.7 1007.6 1.2
05/03:00am 17.5 17.3 14.8 84 1.6 N 9 17 5 9 1008.1 1008.0 1.2
05/02:30am 17.8 15.9 15.1 84 1.6 N 19 26 10 14 1008.8 1008.7 1.2
05/02:00am 17.8 16.6 15.1 84 1.6 N 15 22 8 12 1009.0 1008.9 1.2
05/01:30am 17.9 16.8 15.2 84 1.6 N 15 22 8 12 1009.5 1009.4 1.2
05/01:00am 17.8 16.5 14.9 83 1.7 N 15 24 8 13 1010.3 1010.2 1.2
05/12:30am 17.7 15.7 15.0 84 1.6 N 19 26 10 14 1010.8 1010.7 1.2
05/12:00am 17.8 15.9 15.2 85 1.5 N 19 26 10 14 1011.3 1011.2 1.2
 
Date/Time
EDT
Temp
°C
App
Temp
°C
Dew
Point
°C
Rel
Hum
%
Delta-T
°C
Wind Press
QNH
hPa
Press
MSL
hPa
Rain since
9am
mm
Dir  Spd
km/h
Gust
km/h
Spd
kts
Gust
kts
04/11:30pm 18.2 16.3 15.1 82 1.8 N 19 28 10 15 1011.7 1011.6 0.0
04/11:00pm 18.3 17.5 15.0 81 1.9 N 13 20 7 11 1012.0 1011.9 0.0
04/10:30pm 18.4 17.1 14.9 80 2.0 N 15 24 8 13 1012.3 1012.2 0.0
04/10:00pm 18.7 17.1 15.0 79 2.2 N 17 22 9 12 1012.4 1012.3 0.0
04/09:30pm 18.9 17.8 15.2 79 2.2 N 15 22 8 12 1012.3 1012.2 0.0
04/09:00pm 19.0 19.0 15.1 78 2.3 N 9 15 5 8 1012.3 1012.2 0.0
04/08:30pm 19.0 19.4 15.3 79 2.2 NNE 7 17 4 9 1012.1 1012.0 0.0
04/08:00pm 19.1 19.5 15.4 79 2.2 N 7 19 4 10 1012.0 1011.9 0.0
04/07:30pm 19.4 19.9 15.5 78 2.3 NE 7 15 4 8 1012.0 1011.9 0.0
04/07:00pm 19.5 18.9 15.6 78 2.3 NE 13 24 7 13 1011.9 1011.8 0.0
04/06:30pm 20.0 18.5 15.2 74 2.8 NE 17 30 9 16 1011.7 1011.6 0.0
04/06:00pm 20.2 18.6 15.0 72 3.1 NE 17 32 9 17 1011.5 1011.4 0.0
04/05:30pm 20.5 18.1 15.3 72 3.1 NE 22 33 12 18 1011.4 1011.3 0.0
04/05:00pm 20.6 18.6 15.4 72 3.1 NE 20 33 11 18 1011.6 1011.5 0.0
04/04:30pm 20.9 19.1 15.4 71 3.3 NE 19 30 10 16 1011.8 1011.7 0.0
04/04:00pm 20.9 18.8 15.2 70 3.4 NE 20 33 11 18 1012.2 1012.1 0.0
04/03:30pm 20.5 18.3 15.9 75 2.8 NE 22 32 12 17 1012.5 1012.4 0.0
04/03:00pm 20.4 18.7 16.2 77 2.5 NE 20 28 11 15 1012.9 1012.8 0.0
04/02:30pm 20.4 18.9 16.4 78 2.4 NE 19 30 10 16 1013.3 1013.2 0.0
04/02:00pm 20.5 18.7 15.9 75 2.8 NE 20 35 11 19 1013.6 1013.5 0.0
04/01:30pm 20.8 19.3 16.4 76 2.7 NE 19 28 10 15 1014.0 1013.9 0.0
04/01:00pm 20.4 18.8 16.0 76 2.6 NE 19 28 10 15 1014.3 1014.2 0.0
04/12:30pm 20.5 18.9 15.9 75 2.8 NE 19 28 10 15 1014.7 1014.6 0.0
04/12:00pm 20.4 19.1 15.8 75 2.7 NE 17 28 9 15 1015.0 1014.9 0.0
04/11:30am 21.2 20.2 14.6 66 3.9 NE 13 24 7 13 1015.3 1015.2 0.0
04/11:00am 20.6 18.6 14.0 66 3.8 NE 17 24 9 13 1015.5 1015.4 0.0
04/10:30am 20.0 17.0 13.7 67 3.6 NE 22 28 12 15 1015.8 1015.7 0.0
04/10:00am 20.0 18.6 13.5 66 3.7 NE 13 22 7 12 1015.9 1015.8 0.0
04/09:30am 20.0 19.5 13.7 67 3.6 NE 9 17 5 9 1016.1 1016.0 0.0
04/09:00am 19.9 19.4 13.8 68 3.5 N 9 15 5 8 1016.4 1016.3 0.0
04/08:30am 18.9 17.0 13.1 69 3.3 N 15 22 8 12 1016.4 1016.3 0.0
04/08:00am 18.4 17.4 13.3 72 2.9 N 11 20 6 11 1016.3 1016.2 0.0
04/07:30am 17.7 16.3 13.4 76 2.4 N 13 17 7 9 1016.1 1016.0 0.0
04/07:00am 16.0 15.3 13.3 84 1.5 N 9 13 5 7 1016.1 1016.0 0.0
04/06:30am 15.3 14.1 12.8 85 1.4 N 11 17 6 9 1016.0 1015.9 0.0
04/06:00am 13.6 13.0 11.8 89 1.0 N 6 7 3 4 1015.9 1015.8 0.0
04/05:30am 13.4 12.8 11.6 89 1.0 N 6 7 3 4 1015.7 1015.6 0.0
04/05:00am 13.7 13.2 11.9 89 1.0 N 6 9 3 5 1015.7 1015.6 0.0
04/04:30am 13.8 13.3 12.0 89 1.0 N 6 7 3 4 1015.6 1015.5 0.0
04/04:00am 14.0 13.5 12.2 89 1.0 N 6 7 3 4 1015.7 1015.6 0.0
04/03:30am 14.0 13.5 12.0 88 1.1 N 6 6 3 3 1015.7 1015.6 0.0
04/03:00am 14.2 14.1 12.2 88 1.1 N 4 6 2 3 1015.8 1015.7 0.0
04/02:30am 14.0 14.6 11.9 87 1.1 CALM 0 0 0 0 1015.9 1015.8 0.0
04/02:00am 14.1 14.3 11.8 86 1.2 N 2 2 1 1 1016.2 1016.1 0.0
04/01:30am 14.8 15.0 11.9 83 1.6 N 2 2 1 1 1016.4 1016.3 0.0
04/01:00am 15.5 15.6 12.8 84 1.5 N 4 6 2 3 1016.6 1016.5 0.0
04/12:30am 15.9 15.7 13.0 83 1.6 N 6 7 3 4 1016.9 1016.8 0.0
04/12:00am 16.2 16.0 13.1 82 1.7 N 6 7 3 4 1017.3 1017.2 0.0
 
Date/Time
EDT
Temp
°C
App
Temp
°C
Dew
Point
°C
Rel
Hum
%
Delta-T
°C
Wind Press
QNH
hPa
Press
MSL
hPa
Rain since
9am
mm
Dir  Spd
km/h
Gust
km/h
Spd
kts
Gust
kts
03/11:30pm 16.0 16.2 12.9 82 1.7 N 4 6 2 3 1017.5 1017.4 0.0
03/11:00pm 16.2 16.4 12.9 81 1.8 N 4 6 2 3 1017.6 1017.5 0.0
03/10:30pm 17.0 16.9 13.3 79 2.1 N 6 9 3 5 1017.6 1017.5 0.0
03/10:00pm 17.3 17.6 13.4 78 2.2 N 4 9 2 5 1017.6 1017.5 0.0
03/09:30pm 17.8 18.2 13.7 77 2.3 NNE 4 9 2 5 1017.4 1017.3 0.0
03/09:00pm 18.0 18.0 13.7 76 2.4 NNE 6 13 3 7 1017.1 1017.0 0.0
03/08:30pm 18.0 18.3 13.3 74 2.7 N 4 7 2 4 1016.9 1016.8 0.0
03/08:00pm 18.4 16.5 14.1 76 2.5 NE 17 22 9 12 1016.8 1016.7 0.0
03/07:30pm 18.4 16.7 13.7 74 2.7 NE 15 20 8 11 1016.7 1016.6 0.0
03/07:00pm 18.6 17.7 13.7 73 2.8 NE 11 22 6 12 1016.5 1016.4 0.0
03/06:30pm 18.9 17.6 13.7 72 3.0 NE 13 20 7 11 1016.2 1016.1 0.0
03/06:00pm 19.0 17.7 13.8 72 3.0 NE 13 22 7 12 1016.0 1015.9 0.0
03/05:30pm 19.5 18.3 14.1 71 3.1 NE 13 20 7 11 1016.0 1015.9 0.0

Latest Capital City Observations: Canberra | Sydney | Melbourne | Brisbane | Adelaide | Perth | Hobart | Darwin

Other formats

Comma delimited format used in spreadsheet applications
http://www.bom.gov.au/fwo/IDN60903/IDN60903.94938.axf

JavaScript Object Notation format (JSON) in row-major order
http://www.bom.gov.au/fwo/IDN60903/IDN60903.94938.json

Data quality

Most of these data are generated automatically and are frequently updated. Quality checks on data are not normally performed. It is possible for incorrect values to appear. Refer to information at About Latest Weather Observations and please check the disclaimer before using these data.